createdAt,value
2019-01-20T00:01:35.885Z,17.30
2019-01-20T00:04:06.190Z,17.23
2019-01-20T00:06:35.078Z,16.77
2019-01-20T00:09:07.611Z,17.50
2019-01-20T00:11:37.662Z,16.93
2019-01-20T00:14:06.697Z,16.77
2019-01-20T00:16:35.663Z,17.30
2019-01-20T00:19:04.719Z,17.27
2019-01-20T00:21:33.482Z,17.03
2019-01-20T00:24:02.362Z,17.33
2019-01-20T00:26:31.148Z,16.13
2019-01-20T00:29:00.291Z,16.03
2019-01-20T00:31:29.122Z,17.27
2019-01-20T00:33:58.247Z,15.97
2019-01-20T00:36:28.473Z,16.57
2019-01-20T00:38:57.285Z,16.87
2019-01-20T00:41:26.059Z,16.30
2019-01-20T00:43:54.988Z,17.13
2019-01-20T00:46:23.814Z,17.00
2019-01-20T00:48:52.869Z,16.67
2019-01-20T00:51:23.502Z,16.97
2019-01-20T00:53:52.309Z,16.50
2019-01-20T00:56:21.083Z,17.13
2019-01-20T00:58:49.885Z,15.80
2019-01-20T01:01:19.026Z,15.90
2019-01-20T01:03:47.901Z,17.13
2019-01-20T01:06:17.526Z,17.73
2019-01-20T01:08:46.528Z,16.87
2019-01-20T01:11:15.417Z,17.27
2019-01-20T01:13:44.577Z,18.10
2019-01-20T01:16:13.420Z,18.00
2019-01-20T01:18:42.178Z,17.43
2019-01-20T01:21:10.951Z,18.07
2019-01-20T01:23:39.842Z,18.87
2019-01-20T01:26:08.604Z,19.27
2019-01-20T01:28:37.405Z,18.90
2019-01-20T01:31:06.225Z,19.20
2019-01-20T01:33:35.469Z,18.17
2019-01-20T01:36:04.614Z,17.70
2019-01-20T01:38:33.490Z,17.90
2019-01-20T01:41:03.183Z,18.23
2019-01-20T01:43:31.946Z,18.57
2019-01-20T01:46:00.880Z,18.47
2019-01-20T01:48:29.668Z,17.60
2019-01-20T01:50:58.551Z,16.93
2019-01-20T01:53:29.962Z,17.23
2019-01-20T01:55:58.806Z,18.93
2019-01-20T01:58:27.583Z,17.93
2019-01-20T02:00:56.375Z,19.20
2019-01-20T02:03:25.133Z,18.40
2019-01-20T02:05:54.769Z,19.70
2019-01-20T02:08:23.590Z,17.67
2019-01-20T02:10:52.374Z,18.37
2019-01-20T02:13:21.158Z,19.77
2019-01-20T02:15:50.126Z,18.60
2019-01-20T02:18:19.242Z,18.23
2019-01-20T02:20:48.161Z,19.83
2019-01-20T02:23:17.109Z,19.63
2019-01-20T02:25:45.886Z,18.83
2019-01-20T02:28:15.149Z,19.07
2019-01-20T02:30:44.203Z,18.50
2019-01-20T02:33:15.362Z,18.97
2019-01-20T02:35:44.209Z,19.27
2019-01-20T02:38:14.662Z,19.97
2019-01-20T02:40:43.504Z,19.47
2019-01-20T02:43:12.656Z,19.30
2019-01-20T02:45:41.439Z,19.47
2019-01-20T02:48:10.271Z,17.97
2019-01-20T02:50:39.283Z,20.03
2019-01-20T02:53:08.124Z,19.63
2019-01-20T02:55:36.901Z,19.93
2019-01-20T02:58:05.739Z,19.13
2019-01-20T03:00:34.781Z,19.73
2019-01-20T03:03:03.712Z,19.20
2019-01-20T03:05:32.500Z,21.40
2019-01-20T03:08:01.245Z,19.07
2019-01-20T03:10:30.002Z,19.80
2019-01-20T03:12:59.112Z,19.87
2019-01-20T03:15:29.340Z,20.67
2019-01-20T03:17:58.170Z,20.83
2019-01-20T03:20:27.277Z,20.77
2019-01-20T03:22:56.257Z,21.10
2019-01-20T03:25:25.149Z,21.33
2019-01-20T03:27:54.155Z,21.30
2019-01-20T03:30:23.768Z,21.27
2019-01-20T03:32:52.762Z,23.33
2019-01-20T03:35:24.573Z,23.00
2019-01-20T03:37:53.409Z,21.20
2019-01-20T03:40:22.695Z,21.60
2019-01-20T03:42:51.716Z,22.27
2019-01-20T03:45:20.735Z,23.70
2019-01-20T03:47:50.245Z,22.40
2019-01-20T03:50:19.119Z,21.57
2019-01-20T03:52:48.325Z,22.40
2019-01-20T03:55:17.831Z,23.80
2019-01-20T03:57:47.093Z,21.87
2019-01-20T04:00:18.475Z,21.57
2019-01-20T04:02:50.249Z,22.13
2019-01-20T04:05:19.162Z,20.33
2019-01-20T04:07:47.919Z,23.10
2019-01-20T04:10:16.799Z,21.80
2019-01-20T04:12:45.825Z,21.77
2019-01-20T04:15:15.001Z,22.13
2019-01-20T04:17:44.031Z,23.70
2019-01-20T04:20:13.423Z,22.70
2019-01-20T04:22:42.342Z,22.87
2019-01-20T04:25:12.346Z,21.73
2019-01-20T04:27:41.549Z,22.33
2019-01-20T04:30:12.900Z,21.73
2019-01-20T04:32:42.100Z,22.73
2019-01-20T04:35:11.244Z,21.03
2019-01-20T04:37:40.493Z,22.50
2019-01-20T04:40:11.899Z,21.60
2019-01-20T04:42:40.922Z,22.57
2019-01-20T04:45:11.113Z,21.93
2019-01-20T04:47:40.011Z,22.43
2019-01-20T04:50:11.350Z,21.37
2019-01-20T04:52:40.172Z,20.70
2019-01-20T04:55:10.643Z,22.80
2019-01-20T04:57:39.919Z,21.47
2019-01-20T05:00:12.316Z,20.83
2019-01-20T05:02:41.067Z,21.20
2019-01-20T05:05:09.985Z,22.80
2019-01-20T05:07:39.061Z,21.67
2019-01-20T05:10:09.794Z,21.80
2019-01-20T05:12:38.608Z,20.97
2019-01-20T05:15:09.550Z,20.87
2019-01-20T05:17:38.555Z,21.17
2019-01-20T05:20:07.619Z,21.40
2019-01-20T05:22:36.655Z,20.63
2019-01-20T05:25:06.163Z,21.93
2019-01-20T05:27:34.905Z,20.57
2019-01-20T05:30:05.045Z,21.67
2019-01-20T05:32:33.826Z,21.57
2019-01-20T05:35:02.792Z,21.70
2019-01-20T05:37:31.626Z,20.80
2019-01-20T05:40:00.382Z,21.63
2019-01-20T05:42:29.127Z,20.43
2019-01-20T05:44:58.048Z,21.37
2019-01-20T05:47:26.836Z,21.10
2019-01-20T05:49:55.881Z,21.90
2019-01-20T05:52:24.714Z,23.20
2019-01-20T05:54:53.479Z,23.00
2019-01-20T05:57:22.534Z,22.90
2019-01-20T05:59:51.525Z,22.67
2019-01-20T06:02:20.291Z,21.40
2019-01-20T06:04:49.320Z,22.07
2019-01-20T06:07:18.123Z,20.83
2019-01-20T06:09:46.855Z,21.50
2019-01-20T06:12:15.616Z,22.77
2019-01-20T06:14:44.384Z,22.20
2019-01-20T06:17:13.443Z,21.00
2019-01-20T06:19:42.483Z,19.67
2019-01-20T06:22:11.257Z,21.03
2019-01-20T06:24:40.355Z,20.83
2019-01-20T06:27:09.770Z,19.70
2019-01-20T06:29:38.809Z,21.17
2019-01-20T06:32:07.585Z,21.13
2019-01-20T06:34:36.559Z,20.50
2019-01-20T06:37:05.405Z,20.93
2019-01-20T06:39:34.681Z,21.03
2019-01-20T06:42:03.439Z,20.70
2019-01-20T06:44:32.189Z,21.27
2019-01-20T06:47:01.198Z,20.30
2019-01-20T06:49:30.260Z,20.10
2019-01-20T06:51:59.089Z,21.40
2019-01-20T06:54:28.162Z,20.80
2019-01-20T06:56:56.980Z,20.47
2019-01-20T06:59:25.784Z,21.37
2019-01-20T07:01:54.801Z,20.93
2019-01-20T07:04:24.231Z,19.03
2019-01-20T07:06:52.987Z,19.70
2019-01-20T07:09:21.780Z,21.00
2019-01-20T07:11:50.534Z,19.47
2019-01-20T07:14:19.953Z,21.40
2019-01-20T07:16:48.723Z,20.93
2019-01-20T07:19:17.507Z,20.77
2019-01-20T07:21:46.281Z,21.90
2019-01-20T07:24:15.351Z,21.80
2019-01-20T07:26:44.439Z,20.33
2019-01-20T07:29:13.317Z,21.27
2019-01-20T07:31:42.117Z,20.43
2019-01-20T07:34:11.358Z,20.73
2019-01-20T07:36:40.254Z,19.87
2019-01-20T07:39:09.066Z,20.80
2019-01-20T07:41:37.892Z,21.43
2019-01-20T07:44:06.734Z,21.63
2019-01-20T07:46:35.778Z,20.43
2019-01-20T07:49:04.650Z,20.43
2019-01-20T07:51:33.454Z,19.53
2019-01-20T07:54:02.243Z,20.77
2019-01-20T07:56:31.019Z,22.50
2019-01-20T07:59:00.087Z,22.03
2019-01-20T08:01:29.292Z,21.50
2019-01-20T08:03:58.085Z,20.93
2019-01-20T08:06:27.224Z,22.20
2019-01-20T08:08:56.065Z,23.80
2019-01-20T08:11:24.876Z,23.73
2019-01-20T08:13:53.736Z,23.40
2019-01-20T08:16:22.513Z,21.30
2019-01-20T08:18:51.308Z,20.53
2019-01-20T08:21:20.058Z,22.57
2019-01-20T08:23:48.896Z,23.53
2019-01-20T08:26:18.013Z,22.17
2019-01-20T08:28:46.898Z,20.37
2019-01-20T08:31:15.715Z,23.07
2019-01-20T08:33:44.605Z,22.23
2019-01-20T08:36:13.568Z,20.30
2019-01-20T08:38:42.430Z,21.53
2019-01-20T08:41:11.439Z,22.77
2019-01-20T08:43:40.570Z,22.67
2019-01-20T08:46:58.112Z,22.50
2019-01-20T08:49:26.994Z,22.13
2019-01-20T08:51:55.806Z,23.80
2019-01-20T08:54:24.656Z,24.27
2019-01-20T08:56:53.543Z,22.23
2019-01-20T08:59:22.323Z,21.23
2019-01-20T09:01:51.190Z,22.30
2019-01-20T09:04:19.959Z,22.43
2019-01-20T09:06:48.755Z,22.40
2019-01-20T09:09:17.581Z,23.33
2019-01-20T09:11:46.631Z,22.23
2019-01-20T09:14:15.628Z,24.50
2019-01-20T09:16:44.396Z,21.53
2019-01-20T09:19:13.174Z,23.47
2019-01-20T09:21:42.242Z,22.10
2019-01-20T09:24:10.994Z,20.80
2019-01-20T09:26:40.156Z,20.77
2019-01-20T09:29:09.031Z,21.33
2019-01-20T09:31:38.115Z,20.43
2019-01-20T09:34:06.941Z,19.13
2019-01-20T09:36:35.824Z,21.07
2019-01-20T09:39:12.734Z,20.47
2019-01-20T09:41:41.504Z,22.17
2019-01-20T09:44:10.268Z,21.40
2019-01-20T09:46:39.423Z,21.03
2019-01-20T09:49:08.194Z,21.47
2019-01-20T09:51:37.200Z,20.37
2019-01-20T09:54:06.586Z,23.17
2019-01-20T09:56:35.431Z,20.77
2019-01-20T09:59:04.345Z,22.33
2019-01-20T10:01:33.123Z,23.77
2019-01-20T10:04:02.294Z,23.40
2019-01-20T10:06:31.341Z,22.27
2019-01-20T10:09:00.139Z,22.33
2019-01-20T10:11:29.308Z,21.13
2019-01-20T10:13:58.192Z,23.90
2019-01-20T10:16:27.022Z,23.43
2019-01-20T10:18:58.643Z,23.67
2019-01-20T10:21:27.422Z,22.67
2019-01-20T10:23:56.489Z,21.10
2019-01-20T10:26:25.241Z,20.70
2019-01-20T10:28:54.058Z,21.63
2019-01-20T10:31:22.823Z,20.67
2019-01-20T10:33:51.572Z,20.23
2019-01-20T10:36:20.482Z,21.17
2019-01-20T10:38:49.344Z,20.83
2019-01-20T10:41:18.186Z,19.67
2019-01-20T10:43:47.249Z,21.67
2019-01-20T10:46:16.650Z,21.00
2019-01-20T10:48:45.948Z,21.90
2019-01-20T10:51:15.085Z,22.67
2019-01-20T10:53:43.859Z,21.90
2019-01-20T10:56:12.761Z,21.60
2019-01-20T10:58:42.162Z,21.03
2019-01-20T11:01:10.959Z,21.17
2019-01-20T11:03:40.281Z,20.10
2019-01-20T11:06:09.199Z,19.90
2019-01-20T11:08:38.405Z,19.67
2019-01-20T11:11:09.134Z,22.17
2019-01-20T11:13:37.920Z,19.87
2019-01-20T11:16:07.273Z,20.23
2019-01-20T11:18:36.187Z,19.20
2019-01-20T11:21:05.173Z,20.07
2019-01-20T11:23:34.232Z,19.27
2019-01-20T11:26:03.390Z,20.57
2019-01-20T11:28:32.215Z,18.63
2019-01-20T11:31:00.987Z,21.97
2019-01-20T11:33:30.159Z,18.83
2019-01-20T11:35:59.295Z,20.53
2019-01-20T11:38:28.066Z,19.73
2019-01-20T11:40:57.314Z,18.47
2019-01-20T11:43:26.126Z,20.60
2019-01-20T11:45:55.133Z,17.50
2019-01-20T11:48:23.901Z,18.70
2019-01-20T11:50:54.295Z,19.77
2019-01-20T11:53:23.192Z,19.80
2019-01-20T11:55:53.450Z,21.27
2019-01-20T11:58:22.462Z,21.83
2019-01-20T12:00:51.405Z,21.17
2019-01-20T12:03:20.194Z,19.37
2019-01-20T12:05:49.007Z,20.60
2019-01-20T12:08:18.271Z,20.23
2019-01-20T12:10:47.107Z,22.40
2019-01-20T12:13:19.070Z,21.03
2019-01-20T12:15:48.013Z,21.00
2019-01-20T12:18:16.816Z,21.97
2019-01-20T12:20:45.966Z,19.63
2019-01-20T12:23:14.906Z,21.43
2019-01-20T12:25:43.804Z,20.50
2019-01-20T12:28:12.580Z,20.03
2019-01-20T12:30:41.510Z,20.90
2019-01-20T12:33:10.472Z,19.67
2019-01-20T12:35:39.276Z,20.30
2019-01-20T12:38:08.251Z,20.10
2019-01-20T12:40:42.517Z,21.23
2019-01-20T12:43:11.391Z,20.90
2019-01-20T12:45:40.364Z,21.87
2019-01-20T12:48:09.276Z,21.57
2019-01-20T12:50:38.298Z,20.83
2019-01-20T12:53:07.244Z,20.77
2019-01-20T12:55:36.225Z,21.53
2019-01-20T12:58:05.780Z,21.43
2019-01-20T13:00:34.775Z,17.93
2019-01-20T13:03:03.739Z,20.37
2019-01-20T13:05:33.415Z,20.40
2019-01-20T13:08:02.368Z,19.97
2019-01-20T13:10:31.113Z,19.53
2019-01-20T13:12:59.919Z,20.30
2019-01-20T13:15:29.124Z,22.50
2019-01-20T13:17:58.093Z,21.23
2019-01-20T13:20:27.005Z,21.10
2019-01-20T13:22:55.935Z,20.93
2019-01-20T13:25:26.849Z,22.13
2019-01-20T13:27:55.819Z,22.80
2019-01-20T13:30:26.664Z,21.43
2019-01-20T13:32:55.575Z,22.23
2019-01-20T13:35:25.693Z,22.57
2019-01-20T13:38:00.463Z,22.93
2019-01-20T13:40:35.969Z,21.17
2019-01-20T13:43:05.109Z,22.33
2019-01-20T13:45:34.249Z,23.67
2019-01-20T13:48:03.181Z,23.03
2019-01-20T13:50:32.248Z,23.23
2019-01-20T13:53:01.100Z,21.40
2019-01-20T13:55:30.193Z,22.53
2019-01-20T13:57:59.055Z,21.47
2019-01-20T14:00:28.244Z,21.47
2019-01-20T14:02:57.082Z,23.07
2019-01-20T14:05:26.540Z,21.93
2019-01-20T14:07:55.333Z,21.30
2019-01-20T14:10:25.524Z,20.77
2019-01-20T14:12:54.505Z,21.77
2019-01-20T14:15:23.627Z,22.10
2019-01-20T14:17:52.499Z,23.83
2019-01-20T14:20:21.998Z,23.10
2019-01-20T14:22:51.035Z,20.57
2019-01-20T14:25:22.193Z,23.00
2019-01-20T14:27:51.009Z,20.50
2019-01-20T14:30:22.110Z,20.77
2019-01-20T14:32:51.138Z,22.90
2019-01-20T14:35:20.259Z,23.20
2019-01-20T14:37:49.164Z,23.33
2019-01-20T14:40:18.412Z,22.93
2019-01-20T14:42:47.587Z,24.30
2019-01-20T14:45:16.829Z,22.90
2019-01-20T14:47:45.988Z,26.70
2019-01-20T14:50:18.150Z,23.63
2019-01-20T14:52:47.050Z,26.10
2019-01-20T14:55:16.120Z,26.93
2019-01-20T14:57:45.331Z,31.57
2019-01-20T15:00:17.783Z,30.20
2019-01-20T15:02:46.739Z,24.80
2019-01-20T15:05:16.522Z,25.97
2019-01-20T15:07:45.489Z,23.57
2019-01-20T15:10:14.529Z,21.57
2019-01-20T15:12:43.839Z,23.07
2019-01-20T15:15:16.214Z,23.10
2019-01-20T15:17:45.304Z,22.07
2019-01-20T15:20:14.566Z,23.07
2019-01-20T15:22:43.431Z,22.80
2019-01-20T15:25:13.334Z,24.80
2019-01-20T15:27:42.082Z,23.07
2019-01-20T15:30:17.857Z,22.40
2019-01-20T15:32:46.803Z,24.67
2019-01-20T15:35:16.059Z,24.97
2019-01-20T15:37:44.818Z,23.97
2019-01-20T15:40:15.425Z,22.97
2019-01-20T15:42:44.265Z,23.60
2019-01-20T15:45:16.582Z,23.23
2019-01-20T15:47:46.053Z,23.53
2019-01-20T15:50:17.614Z,22.27
2019-01-20T15:52:46.414Z,22.13
2019-01-20T15:55:15.424Z,30.03
2019-01-20T15:57:44.262Z,22.20
2019-01-20T16:00:16.328Z,22.97
2019-01-20T16:02:45.326Z,22.73
2019-01-20T16:05:14.403Z,22.50
2019-01-20T16:07:43.226Z,23.97
2019-01-20T16:10:13.040Z,28.20
2019-01-20T16:12:42.355Z,24.80
2019-01-20T16:15:24.013Z,25.37
2019-01-20T16:17:48.435Z,25.73
2019-01-20T16:20:17.932Z,26.00
2019-01-20T16:22:46.801Z,25.80
2019-01-20T16:25:18.069Z,28.47
2019-01-20T16:27:46.994Z,27.03
2019-01-20T16:30:18.603Z,29.37
2019-01-20T16:32:47.471Z,29.77
2019-01-20T16:35:16.263Z,28.47
2019-01-20T16:37:45.029Z,26.50
2019-01-20T16:40:16.742Z,26.17
2019-01-20T16:42:45.841Z,47.07
2019-01-20T16:45:16.335Z,28.63
2019-01-20T16:47:45.205Z,26.43
2019-01-20T16:50:17.055Z,26.43
2019-01-20T16:52:46.092Z,23.63
2019-01-20T16:55:16.171Z,24.87
2019-01-20T16:57:45.309Z,24.63
2019-01-20T17:00:19.642Z,22.93
2019-01-20T17:02:48.584Z,24.53
2019-01-20T17:05:17.661Z,25.63
2019-01-20T17:07:46.776Z,23.87
2019-01-20T17:10:20.959Z,25.20
2019-01-20T17:12:49.783Z,24.17
2019-01-20T17:15:21.150Z,23.53
2019-01-20T17:17:50.071Z,25.87
2019-01-20T17:20:18.981Z,25.17
2019-01-20T17:22:48.578Z,29.17
2019-01-20T17:25:17.777Z,28.23
2019-01-20T17:27:46.702Z,26.23
2019-01-20T17:30:17.852Z,27.60
2019-01-20T17:32:46.714Z,30.20
2019-01-20T17:35:15.647Z,27.33
2019-01-20T17:37:44.587Z,28.37
2019-01-20T17:40:16.284Z,27.73
2019-01-20T17:42:45.103Z,28.07
2019-01-20T17:45:15.151Z,27.63
2019-01-20T17:47:44.114Z,27.23
2019-01-20T17:50:16.627Z,29.47
2019-01-20T17:52:45.381Z,31.00
2019-01-20T17:55:14.402Z,31.10
2019-01-20T17:57:43.346Z,28.53
2019-01-20T18:00:15.813Z,32.13
2019-01-20T18:02:44.728Z,28.43
2019-01-20T18:05:14.526Z,27.57
2019-01-20T18:07:43.374Z,30.23
2019-01-20T18:10:13.939Z,27.73
2019-01-20T18:12:43.045Z,28.53
2019-01-20T18:15:13.907Z,29.20
2019-01-20T18:17:43.552Z,28.93
2019-01-20T18:20:21.641Z,28.97
2019-01-20T18:22:50.489Z,28.67
2019-01-20T18:25:19.562Z,27.23
2019-01-20T18:27:48.481Z,27.17
2019-01-20T18:30:20.659Z,28.27
2019-01-20T18:32:49.610Z,28.50
2019-01-20T18:35:19.070Z,28.90
2019-01-20T18:37:49.347Z,35.40
2019-01-20T18:40:19.425Z,26.70
2019-01-20T18:42:48.331Z,31.07
2019-01-20T18:45:23.044Z,27.90
2019-01-20T18:47:51.801Z,29.50
2019-01-20T18:50:23.126Z,31.83
2019-01-20T18:52:52.347Z,29.37
2019-01-20T18:55:21.927Z,28.07
2019-01-20T18:57:50.892Z,25.50
2019-01-20T19:00:25.294Z,24.57
2019-01-20T19:02:54.397Z,26.47
2019-01-20T19:05:23.715Z,24.43
2019-01-20T19:07:55.561Z,27.50
2019-01-20T19:10:23.939Z,24.77
2019-01-20T19:12:52.745Z,25.87
2019-01-20T19:15:21.806Z,27.70
2019-01-20T19:17:50.685Z,28.17
2019-01-20T19:20:21.114Z,28.33
2019-01-20T19:22:51.626Z,28.90
2019-01-20T19:25:20.767Z,27.63
2019-01-20T19:27:49.633Z,24.37
2019-01-20T19:30:21.121Z,25.77
2019-01-20T19:32:50.179Z,26.03
2019-01-20T19:35:20.850Z,24.80
2019-01-20T19:37:49.759Z,27.63
2019-01-20T19:40:18.882Z,26.10
2019-01-20T19:42:47.764Z,26.43
2019-01-20T19:45:17.934Z,25.73
2019-01-20T19:47:46.857Z,26.07
2019-01-20T19:50:16.263Z,29.27
2019-01-20T19:52:45.117Z,27.43
2019-01-20T19:55:20.034Z,27.53
2019-01-20T19:57:49.297Z,26.07
2019-01-20T20:00:20.200Z,25.07
2019-01-20T20:02:49.210Z,25.43
2019-01-20T20:05:18.712Z,24.13
2019-01-20T20:07:48.120Z,24.47
2019-01-20T20:10:18.917Z,24.13
2019-01-20T20:12:47.818Z,23.63
2019-01-20T20:15:21.385Z,25.27
2019-01-20T20:17:50.477Z,28.27
2019-01-20T20:20:19.530Z,29.37
2019-01-20T20:22:48.542Z,28.67
2019-01-20T20:25:18.378Z,30.23
2019-01-20T20:27:47.575Z,30.27
2019-01-20T20:30:22.007Z,27.77
2019-01-20T20:32:50.863Z,27.80
2019-01-20T20:35:19.892Z,26.63
2019-01-20T20:37:48.948Z,27.37
2019-01-20T20:40:18.316Z,28.13
2019-01-20T20:42:47.161Z,26.23
2019-01-20T20:45:18.621Z,25.80
2019-01-20T20:47:47.534Z,27.30
2019-01-20T20:50:17.050Z,30.90
2019-01-20T20:52:46.377Z,27.03
2019-01-20T20:55:15.333Z,23.87
2019-01-20T20:57:44.256Z,24.73
2019-01-20T21:00:22.351Z,28.53
2019-01-20T21:02:51.175Z,26.23
2019-01-20T21:05:20.069Z,27.30
2019-01-20T21:07:49.216Z,26.80
2019-01-20T21:10:18.070Z,27.43
2019-01-20T21:12:46.905Z,26.00
2019-01-20T21:15:15.989Z,25.30
2019-01-20T21:17:48.277Z,25.00
2019-01-20T21:20:17.909Z,25.57
2019-01-20T21:22:46.901Z,24.00
2019-01-20T21:25:16.060Z,24.73
2019-01-20T21:27:44.924Z,24.03
2019-01-20T21:30:22.035Z,24.90
2019-01-20T21:32:51.126Z,25.03
2019-01-20T21:35:20.453Z,23.00
2019-01-20T21:37:49.283Z,23.00
2019-01-20T21:40:18.961Z,22.07
2019-01-20T21:42:47.929Z,23.43
2019-01-20T21:45:17.270Z,22.60
2019-01-20T21:47:46.217Z,24.17
2019-01-20T21:50:20.882Z,22.27
2019-01-20T21:52:49.735Z,23.07
2019-01-20T21:55:18.595Z,24.23
2019-01-20T21:57:47.479Z,23.40
2019-01-20T22:00:18.598Z,23.77
2019-01-20T22:02:47.529Z,23.03
2019-01-20T22:05:16.344Z,22.83
2019-01-20T22:07:45.101Z,23.87
2019-01-20T22:10:18.481Z,23.03
2019-01-20T22:12:47.406Z,22.67
2019-01-20T22:15:16.448Z,23.03
2019-01-20T22:17:45.755Z,21.87
2019-01-20T22:20:19.799Z,23.57
2019-01-20T22:22:48.794Z,24.43
2019-01-20T22:25:17.646Z,24.07
2019-01-20T22:27:46.507Z,24.03
2019-01-20T22:30:20.409Z,24.57
2019-01-20T22:32:49.519Z,25.03
2019-01-20T22:35:18.386Z,24.47
2019-01-20T22:37:47.499Z,21.97
2019-01-20T22:40:16.648Z,23.63
2019-01-20T22:42:45.553Z,23.70
2019-01-20T22:45:19.644Z,23.00
2019-01-20T22:47:48.941Z,24.30
2019-01-20T22:50:17.973Z,22.13
2019-01-20T22:52:46.797Z,22.27
2019-01-20T22:55:15.948Z,22.80
2019-01-20T22:57:44.889Z,22.70
2019-01-20T23:00:23.862Z,23.30
2019-01-20T23:02:52.778Z,22.37
2019-01-20T23:05:21.615Z,23.20
2019-01-20T23:07:50.538Z,23.00
2019-01-20T23:10:19.571Z,23.90
2019-01-20T23:12:48.327Z,23.27
2019-01-20T23:15:17.082Z,23.47
2019-01-20T23:17:45.884Z,22.27
2019-01-20T23:20:15.933Z,22.57
2019-01-20T23:22:44.794Z,21.90
2019-01-20T23:25:13.619Z,21.57
2019-01-20T23:27:42.674Z,23.03
2019-01-20T23:30:12.573Z,22.87
2019-01-20T23:32:41.438Z,23.00
2019-01-20T23:35:10.341Z,20.77
2019-01-20T23:37:39.299Z,21.67
2019-01-20T23:40:08.817Z,23.57
2019-01-20T23:42:37.855Z,23.33
2019-01-20T23:45:08.279Z,21.80
2019-01-20T23:47:37.150Z,22.07
2019-01-20T23:50:07.545Z,20.77
2019-01-20T23:52:36.335Z,22.00
2019-01-20T23:55:05.883Z,22.37
2019-01-20T23:57:34.707Z,21.27
